sensor_id;sensor_type;location;lat;lon;timestamp;P1;durP1;ratioP1;P2;durP2;ratioP2
18592;SDS011;9426;54.118;17.948;2023-12-07T00:01:03;106.57;;;38.50;;
18592;SDS011;9426;54.118;17.948;2023-12-07T00:06:27;108.17;;;38.97;;
18592;SDS011;9426;54.118;17.948;2023-12-07T00:11:51;101.67;;;37.93;;
18592;SDS011;9426;54.118;17.948;2023-12-07T00:17:14;102.90;;;36.77;;
18592;SDS011;9426;54.118;17.948;2023-12-07T00:22:38;93.70;;;35.57;;
18592;SDS011;9426;54.118;17.948;2023-12-07T00:28:02;95.57;;;35.97;;
18592;SDS011;9426;54.118;17.948;2023-12-07T00:33:26;104.00;;;38.47;;
18592;SDS011;9426;54.118;17.948;2023-12-07T00:38:50;101.93;;;37.17;;
18592;SDS011;9426;54.118;17.948;2023-12-07T00:44:15;92.43;;;35.47;;
18592;SDS011;9426;54.118;17.948;2023-12-07T00:49:38;114.00;;;36.37;;
18592;SDS011;9426;54.118;17.948;2023-12-07T00:55:02;98.33;;;35.57;;
18592;SDS011;9426;54.118;17.948;2023-12-07T01:00:27;97.63;;;35.70;;
18592;SDS011;9426;54.118;17.948;2023-12-07T01:05:51;109.87;;;37.13;;
18592;SDS011;9426;54.118;17.948;2023-12-07T01:11:14;105.70;;;36.03;;
18592;SDS011;9426;54.118;17.948;2023-12-07T01:16:39;100.30;;;36.20;;
18592;SDS011;9426;54.118;17.948;2023-12-07T01:22:03;98.83;;;36.90;;
18592;SDS011;9426;54.118;17.948;2023-12-07T01:27:27;103.73;;;36.73;;
18592;SDS011;9426;54.118;17.948;2023-12-07T01:32:52;107.40;;;36.23;;
18592;SDS011;9426;54.118;17.948;2023-12-07T01:38:15;112.23;;;37.57;;
18592;SDS011;9426;54.118;17.948;2023-12-07T01:43:44;101.90;;;35.33;;
18592;SDS011;9426;54.118;17.948;2023-12-07T01:49:09;112.83;;;36.83;;
18592;SDS011;9426;54.118;17.948;2023-12-07T01:54:33;103.43;;;35.83;;
18592;SDS011;9426;54.118;17.948;2023-12-07T01:59:57;110.67;;;36.37;;
18592;SDS011;9426;54.118;17.948;2023-12-07T02:05:25;103.67;;;35.93;;
18592;SDS011;9426;54.118;17.948;2023-12-07T02:10:49;93.33;;;34.77;;
18592;SDS011;9426;54.118;17.948;2023-12-07T02:16:15;106.53;;;35.30;;
18592;SDS011;9426;54.118;17.948;2023-12-07T02:21:47;101.77;;;36.83;;
18592;SDS011;9426;54.118;17.948;2023-12-07T02:27:16;101.00;;;34.57;;
18592;SDS011;9426;54.118;17.948;2023-12-07T02:32:39;125.67;;;39.40;;
18592;SDS011;9426;54.118;17.948;2023-12-07T02:38:03;116.23;;;39.00;;
18592;SDS011;9426;54.118;17.948;2023-12-07T02:43:32;107.50;;;37.03;;
18592;SDS011;9426;54.118;17.948;2023-12-07T02:48:56;103.50;;;34.90;;
18592;SDS011;9426;54.118;17.948;2023-12-07T02:54:20;92.67;;;34.47;;
18592;SDS011;9426;54.118;17.948;2023-12-07T02:59:45;101.50;;;35.87;;
18592;SDS011;9426;54.118;17.948;2023-12-07T03:05:09;106.80;;;36.80;;
18592;SDS011;9426;54.118;17.948;2023-12-07T03:10:33;108.60;;;36.83;;
18592;SDS011;9426;54.118;17.948;2023-12-07T03:15:58;109.10;;;37.83;;
18592;SDS011;9426;54.118;17.948;2023-12-07T03:21:22;106.60;;;36.47;;
18592;SDS011;9426;54.118;17.948;2023-12-07T03:26:46;107.43;;;37.83;;
18592;SDS011;9426;54.118;17.948;2023-12-07T03:32:10;107.33;;;37.80;;
18592;SDS011;9426;54.118;17.948;2023-12-07T03:37:34;99.43;;;35.00;;
18592;SDS011;9426;54.118;17.948;2023-12-07T03:42:58;102.97;;;37.60;;
18592;SDS011;9426;54.118;17.948;2023-12-07T03:48:25;110.77;;;40.03;;
18592;SDS011;9426;54.118;17.948;2023-12-07T03:53:49;139.43;;;43.40;;
18592;SDS011;9426;54.118;17.948;2023-12-07T03:59:13;99.73;;;35.40;;
18592;SDS011;9426;54.118;17.948;2023-12-07T04:04:38;97.80;;;33.07;;
18592;SDS011;9426;54.118;17.948;2023-12-07T04:10:02;100.97;;;34.50;;
18592;SDS011;9426;54.118;17.948;2023-12-07T04:15:27;93.53;;;32.83;;
18592;SDS011;9426;54.118;17.948;2023-12-07T04:20:53;99.10;;;32.90;;
18592;SDS011;9426;54.118;17.948;2023-12-07T04:26:16;81.57;;;28.93;;
18592;SDS011;9426;54.118;17.948;2023-12-07T04:31:40;91.67;;;31.93;;
18592;SDS011;9426;54.118;17.948;2023-12-07T04:37:06;88.43;;;29.97;;
18592;SDS011;9426;54.118;17.948;2023-12-07T04:42:30;83.87;;;29.93;;
18592;SDS011;9426;54.118;17.948;2023-12-07T04:47:53;89.60;;;30.57;;
18592;SDS011;9426;54.118;17.948;2023-12-07T04:53:19;93.13;;;31.50;;
18592;SDS011;9426;54.118;17.948;2023-12-07T04:58:43;84.23;;;30.30;;
18592;SDS011;9426;54.118;17.948;2023-12-07T05:04:06;103.17;;;32.10;;
18592;SDS011;9426;54.118;17.948;2023-12-07T05:09:31;93.53;;;30.87;;
18592;SDS011;9426;54.118;17.948;2023-12-07T05:14:55;87.83;;;29.93;;
18592;SDS011;9426;54.118;17.948;2023-12-07T05:20:19;94.33;;;30.73;;
18592;SDS011;9426;54.118;17.948;2023-12-07T05:25:47;99.07;;;32.40;;
18592;SDS011;9426;54.118;17.948;2023-12-07T05:31:15;94.10;;;31.63;;
18592;SDS011;9426;54.118;17.948;2023-12-07T05:36:39;94.07;;;31.07;;
18592;SDS011;9426;54.118;17.948;2023-12-07T05:42:05;92.83;;;30.10;;
18592;SDS011;9426;54.118;17.948;2023-12-07T05:47:28;89.00;;;30.40;;
18592;SDS011;9426;54.118;17.948;2023-12-07T05:52:52;106.67;;;32.80;;
18592;SDS011;9426;54.118;17.948;2023-12-07T05:58:18;96.57;;;31.80;;
18592;SDS011;9426;54.118;17.948;2023-12-07T06:03:41;100.07;;;33.27;;
18592;SDS011;9426;54.118;17.948;2023-12-07T06:09:05;96.47;;;31.87;;
18592;SDS011;9426;54.118;17.948;2023-12-07T06:14:31;109.27;;;32.80;;
18592;SDS011;9426;54.118;17.948;2023-12-07T06:19:54;90.47;;;31.70;;
18592;SDS011;9426;54.118;17.948;2023-12-07T06:25:18;90.83;;;30.50;;
18592;SDS011;9426;54.118;17.948;2023-12-07T06:30:43;101.40;;;34.33;;
18592;SDS011;9426;54.118;17.948;2023-12-07T06:36:07;104.00;;;32.13;;
18592;SDS011;9426;54.118;17.948;2023-12-07T06:41:32;114.97;;;34.57;;
18592;SDS011;9426;54.118;17.948;2023-12-07T06:46:57;99.37;;;32.57;;
18592;SDS011;9426;54.118;17.948;2023-12-07T06:52:24;101.43;;;32.67;;
18592;SDS011;9426;54.118;17.948;2023-12-07T06:57:47;101.27;;;33.33;;
18592;SDS011;9426;54.118;17.948;2023-12-07T07:03:12;102.50;;;35.07;;
18592;SDS011;9426;54.118;17.948;2023-12-07T07:08:36;128.70;;;44.03;;
18592;SDS011;9426;54.118;17.948;2023-12-07T07:13:59;128.70;;;42.40;;
18592;SDS011;9426;54.118;17.948;2023-12-07T07:19:25;130.17;;;42.67;;
18592;SDS011;9426;54.118;17.948;2023-12-07T07:24:48;120.30;;;40.40;;
18592;SDS011;9426;54.118;17.948;2023-12-07T07:30:12;113.67;;;40.40;;
18592;SDS011;9426;54.118;17.948;2023-12-07T07:35:38;112.83;;;38.77;;
18592;SDS011;9426;54.118;17.948;2023-12-07T07:41:01;125.37;;;41.73;;
18592;SDS011;9426;54.118;17.948;2023-12-07T07:46:26;110.70;;;39.93;;
18592;SDS011;9426;54.118;17.948;2023-12-07T07:51:51;110.73;;;39.67;;
18592;SDS011;9426;54.118;17.948;2023-12-07T07:57:16;115.53;;;40.83;;
18592;SDS011;9426;54.118;17.948;2023-12-07T08:02:39;109.43;;;37.40;;
18592;SDS011;9426;54.118;17.948;2023-12-07T08:08:04;113.50;;;38.23;;
18592;SDS011;9426;54.118;17.948;2023-12-07T08:13:29;102.27;;;35.97;;
18592;SDS011;9426;54.118;17.948;2023-12-07T08:18:52;102.87;;;36.57;;
18592;SDS011;9426;54.118;17.948;2023-12-07T08:24:18;105.57;;;37.00;;
18592;SDS011;9426;54.118;17.948;2023-12-07T08:29:41;102.17;;;36.43;;
18592;SDS011;9426;54.118;17.948;2023-12-07T08:35:05;102.60;;;36.23;;
18592;SDS011;9426;54.118;17.948;2023-12-07T08:40:31;102.13;;;33.77;;
18592;SDS011;9426;54.118;17.948;2023-12-07T08:45:54;98.87;;;35.87;;
18592;SDS011;9426;54.118;17.948;2023-12-07T08:51:20;96.03;;;34.23;;
18592;SDS011;9426;54.118;17.948;2023-12-07T08:56:47;100.30;;;33.27;;
18592;SDS011;9426;54.118;17.948;2023-12-07T09:02:11;100.47;;;34.33;;
18592;SDS011;9426;54.118;17.948;2023-12-07T09:07:36;87.17;;;32.47;;
18592;SDS011;9426;54.118;17.948;2023-12-07T09:13:01;93.73;;;31.77;;
18592;SDS011;9426;54.118;17.948;2023-12-07T09:18:25;98.30;;;34.63;;
18592;SDS011;9426;54.118;17.948;2023-12-07T09:23:48;98.83;;;32.50;;
18592;SDS011;9426;54.118;17.948;2023-12-07T09:29:13;84.33;;;31.20;;
18592;SDS011;9426;54.118;17.948;2023-12-07T09:34:39;90.03;;;32.27;;
18592;SDS011;9426;54.118;17.948;2023-12-07T09:40:03;94.93;;;32.23;;
18592;SDS011;9426;54.118;17.948;2023-12-07T09:45:29;90.37;;;33.20;;
18592;SDS011;9426;54.118;17.948;2023-12-07T09:50:55;88.47;;;33.43;;
18592;SDS011;9426;54.118;17.948;2023-12-07T09:56:19;88.03;;;31.87;;
18592;SDS011;9426;54.118;17.948;2023-12-07T10:01:44;85.47;;;32.43;;
18592;SDS011;9426;54.118;17.948;2023-12-07T10:07:07;83.97;;;31.97;;
18592;SDS011;9426;54.118;17.948;2023-12-07T10:12:31;82.50;;;31.17;;
18592;SDS011;9426;54.118;17.948;2023-12-07T10:17:58;89.23;;;31.97;;
18592;SDS011;9426;54.118;17.948;2023-12-07T10:23:21;83.53;;;31.37;;
18592;SDS011;9426;54.118;17.948;2023-12-07T10:28:48;83.33;;;30.87;;
18592;SDS011;9426;54.118;17.948;2023-12-07T10:34:17;93.30;;;32.33;;
18592;SDS011;9426;54.118;17.948;2023-12-07T10:39:42;74.93;;;29.97;;
18592;SDS011;9426;54.118;17.948;2023-12-07T10:45:06;80.77;;;31.23;;
18592;SDS011;9426;54.118;17.948;2023-12-07T10:50:34;83.83;;;30.10;;
18592;SDS011;9426;54.118;17.948;2023-12-07T10:56:00;82.10;;;30.37;;
18592;SDS011;9426;54.118;17.948;2023-12-07T11:01:26;83.27;;;31.07;;
18592;SDS011;9426;54.118;17.948;2023-12-07T11:06:53;89.23;;;32.37;;
18592;SDS011;9426;54.118;17.948;2023-12-07T11:12:25;85.83;;;31.13;;
18592;SDS011;9426;54.118;17.948;2023-12-07T11:17:55;80.03;;;30.93;;
18592;SDS011;9426;54.118;17.948;2023-12-07T11:23:21;78.73;;;29.53;;
18592;SDS011;9426;54.118;17.948;2023-12-07T11:28:45;82.27;;;30.53;;
18592;SDS011;9426;54.118;17.948;2023-12-07T11:34:09;86.27;;;31.57;;
18592;SDS011;9426;54.118;17.948;2023-12-07T11:39:36;87.57;;;31.63;;
18592;SDS011;9426;54.118;17.948;2023-12-07T11:45:03;86.93;;;31.37;;
18592;SDS011;9426;54.118;17.948;2023-12-07T11:50:27;80.90;;;30.47;;
18592;SDS011;9426;54.118;17.948;2023-12-07T11:55:52;73.57;;;27.77;;
18592;SDS011;9426;54.118;17.948;2023-12-07T12:01:17;79.13;;;29.70;;
18592;SDS011;9426;54.118;17.948;2023-12-07T12:06:42;84.70;;;29.70;;
18592;SDS011;9426;54.118;17.948;2023-12-07T12:12:07;75.30;;;29.70;;
18592;SDS011;9426;54.118;17.948;2023-12-07T12:17:31;75.33;;;30.53;;
18592;SDS011;9426;54.118;17.948;2023-12-07T12:22:55;75.10;;;28.97;;
18592;SDS011;9426;54.118;17.948;2023-12-07T12:28:20;78.53;;;30.20;;
18592;SDS011;9426;54.118;17.948;2023-12-07T12:33:45;81.17;;;29.47;;
18592;SDS011;9426;54.118;17.948;2023-12-07T12:39:11;80.13;;;30.27;;
18592;SDS011;9426;54.118;17.948;2023-12-07T12:44:39;81.00;;;30.03;;
18592;SDS011;9426;54.118;17.948;2023-12-07T12:50:02;79.20;;;29.27;;
18592;SDS011;9426;54.118;17.948;2023-12-07T12:55:27;80.07;;;28.77;;
18592;SDS011;9426;54.118;17.948;2023-12-07T13:00:52;71.83;;;28.67;;
18592;SDS011;9426;54.118;17.948;2023-12-07T13:06:16;80.20;;;31.00;;
18592;SDS011;9426;54.118;17.948;2023-12-07T13:11:40;84.23;;;30.23;;
18592;SDS011;9426;54.118;17.948;2023-12-07T13:17:05;73.10;;;28.97;;
18592;SDS011;9426;54.118;17.948;2023-12-07T13:22:30;78.87;;;31.17;;
18592;SDS011;9426;54.118;17.948;2023-12-07T13:27:53;79.00;;;30.03;;
18592;SDS011;9426;54.118;17.948;2023-12-07T13:33:18;84.40;;;31.40;;
18592;SDS011;9426;54.118;17.948;2023-12-07T13:38:45;83.80;;;30.87;;
18592;SDS011;9426;54.118;17.948;2023-12-07T13:44:09;87.03;;;34.70;;
18592;SDS011;9426;54.118;17.948;2023-12-07T13:49:36;77.63;;;29.83;;
18592;SDS011;9426;54.118;17.948;2023-12-07T13:54:59;91.10;;;32.30;;
18592;SDS011;9426;54.118;17.948;2023-12-07T14:00:23;84.20;;;33.43;;
18592;SDS011;9426;54.118;17.948;2023-12-07T14:05:49;83.20;;;32.90;;
18592;SDS011;9426;54.118;17.948;2023-12-07T14:11:24;85.10;;;32.53;;
18592;SDS011;9426;54.118;17.948;2023-12-07T14:17:28;86.80;;;33.03;;
18592;SDS011;9426;54.118;17.948;2023-12-07T14:23:04;86.63;;;32.10;;
18592;SDS011;9426;54.118;17.948;2023-12-07T14:28:40;85.80;;;32.03;;
18592;SDS011;9426;54.118;17.948;2023-12-07T14:34:25;85.63;;;33.00;;
18592;SDS011;9426;54.118;17.948;2023-12-07T14:40:10;88.43;;;31.77;;
18592;SDS011;9426;54.118;17.948;2023-12-07T14:45:36;95.70;;;32.33;;
18592;SDS011;9426;54.118;17.948;2023-12-07T14:51:00;94.33;;;33.60;;
18592;SDS011;9426;54.118;17.948;2023-12-07T14:56:26;96.43;;;33.90;;
18592;SDS011;9426;54.118;17.948;2023-12-07T15:01:50;100.63;;;34.37;;
18592;SDS011;9426;54.118;17.948;2023-12-07T15:07:17;108.43;;;36.57;;
18592;SDS011;9426;54.118;17.948;2023-12-07T15:12:42;100.27;;;37.10;;
18592;SDS011;9426;54.118;17.948;2023-12-07T15:18:06;99.70;;;34.37;;
18592;SDS011;9426;54.118;17.948;2023-12-07T15:23:30;96.63;;;35.03;;
18592;SDS011;9426;54.118;17.948;2023-12-07T15:28:55;93.23;;;33.43;;
18592;SDS011;9426;54.118;17.948;2023-12-07T15:34:19;97.93;;;33.97;;
18592;SDS011;9426;54.118;17.948;2023-12-07T15:39:45;89.50;;;33.67;;
18592;SDS011;9426;54.118;17.948;2023-12-07T15:45:18;93.10;;;33.27;;
18592;SDS011;9426;54.118;17.948;2023-12-07T15:50:49;93.33;;;34.23;;
18592;SDS011;9426;54.118;17.948;2023-12-07T15:56:20;91.83;;;32.53;;
18592;SDS011;9426;54.118;17.948;2023-12-07T16:01:55;87.37;;;32.13;;
18592;SDS011;9426;54.118;17.948;2023-12-07T16:07:20;95.60;;;34.73;;
18592;SDS011;9426;54.118;17.948;2023-12-07T16:12:44;92.67;;;34.80;;
18592;SDS011;9426;54.118;17.948;2023-12-07T16:18:09;106.93;;;35.00;;
18592;SDS011;9426;54.118;17.948;2023-12-07T16:23:34;105.00;;;35.17;;
18592;SDS011;9426;54.118;17.948;2023-12-07T16:29:32;114.90;;;38.80;;
18592;SDS011;9426;54.118;17.948;2023-12-07T16:41:36;113.53;;;37.07;;
18592;SDS011;9426;54.118;17.948;2023-12-07T16:47:01;108.50;;;39.53;;
18592;SDS011;9426;54.118;17.948;2023-12-07T16:52:25;112.57;;;39.40;;
18592;SDS011;9426;54.118;17.948;2023-12-07T16:57:50;115.33;;;38.33;;
18592;SDS011;9426;54.118;17.948;2023-12-07T17:03:14;121.83;;;38.77;;
18592;SDS011;9426;54.118;17.948;2023-12-07T17:08:39;114.60;;;38.63;;
18592;SDS011;9426;54.118;17.948;2023-12-07T17:14:04;114.50;;;39.83;;
18592;SDS011;9426;54.118;17.948;2023-12-07T17:19:27;109.60;;;37.37;;
18592;SDS011;9426;54.118;17.948;2023-12-07T17:25:03;110.33;;;38.23;;
18592;SDS011;9426;54.118;17.948;2023-12-07T17:42:40;126.43;;;39.30;;
18592;SDS011;9426;54.118;17.948;2023-12-07T17:48:24;127.17;;;39.93;;
18592;SDS011;9426;54.118;17.948;2023-12-07T17:53:48;118.50;;;37.10;;
18592;SDS011;9426;54.118;17.948;2023-12-07T17:59:11;119.73;;;37.40;;
18592;SDS011;9426;54.118;17.948;2023-12-07T18:04:37;115.77;;;37.20;;
18592;SDS011;9426;54.118;17.948;2023-12-07T18:10:00;120.87;;;37.97;;
18592;SDS011;9426;54.118;17.948;2023-12-07T18:16:23;121.10;;;36.27;;
18592;SDS011;9426;54.118;17.948;2023-12-07T18:28:31;128.40;;;39.20;;
18592;SDS011;9426;54.118;17.948;2023-12-07T18:33:54;128.20;;;39.57;;
18592;SDS011;9426;54.118;17.948;2023-12-07T18:39:18;126.60;;;37.80;;
18592;SDS011;9426;54.118;17.948;2023-12-07T18:44:44;123.80;;;36.90;;
18592;SDS011;9426;54.118;17.948;2023-12-07T18:58:06;141.50;;;39.23;;
18592;SDS011;9426;54.118;17.948;2023-12-07T19:05:02;132.77;;;41.00;;
18592;SDS011;9426;54.118;17.948;2023-12-07T19:10:30;132.33;;;39.77;;
18592;SDS011;9426;54.118;17.948;2023-12-07T19:30:50;136.73;;;40.17;;
18592;SDS011;9426;54.118;17.948;2023-12-07T19:43:06;139.40;;;39.10;;
18592;SDS011;9426;54.118;17.948;2023-12-07T19:48:43;142.20;;;40.83;;
18592;SDS011;9426;54.118;17.948;2023-12-07T19:54:14;119.43;;;38.03;;
18592;SDS011;9426;54.118;17.948;2023-12-07T19:59:40;147.23;;;41.90;;
18592;SDS011;9426;54.118;17.948;2023-12-07T20:05:10;134.17;;;40.07;;
18592;SDS011;9426;54.118;17.948;2023-12-07T20:10:36;150.73;;;44.20;;
18592;SDS011;9426;54.118;17.948;2023-12-07T20:16:01;155.43;;;43.77;;
18592;SDS011;9426;54.118;17.948;2023-12-07T20:21:32;141.97;;;40.53;;
18592;SDS011;9426;54.118;17.948;2023-12-07T20:26:58;145.03;;;42.43;;
18592;SDS011;9426;54.118;17.948;2023-12-07T20:32:22;141.73;;;40.03;;
18592;SDS011;9426;54.118;17.948;2023-12-07T20:37:47;169.73;;;45.83;;
18592;SDS011;9426;54.118;17.948;2023-12-07T20:43:11;134.90;;;40.20;;
18592;SDS011;9426;54.118;17.948;2023-12-07T20:48:34;148.27;;;41.23;;
18592;SDS011;9426;54.118;17.948;2023-12-07T20:53:59;168.03;;;43.53;;
18592;SDS011;9426;54.118;17.948;2023-12-07T20:59:23;151.60;;;42.23;;
18592;SDS011;9426;54.118;17.948;2023-12-07T21:04:47;134.87;;;37.67;;
18592;SDS011;9426;54.118;17.948;2023-12-07T21:10:12;134.17;;;39.47;;
18592;SDS011;9426;54.118;17.948;2023-12-07T21:15:36;127.60;;;37.57;;
18592;SDS011;9426;54.118;17.948;2023-12-07T21:21:00;127.37;;;39.17;;
18592;SDS011;9426;54.118;17.948;2023-12-07T21:26:25;130.77;;;39.50;;
18592;SDS011;9426;54.118;17.948;2023-12-07T21:31:50;130.93;;;39.67;;
18592;SDS011;9426;54.118;17.948;2023-12-07T21:37:14;133.37;;;39.37;;
18592;SDS011;9426;54.118;17.948;2023-12-07T21:42:40;135.17;;;40.27;;
18592;SDS011;9426;54.118;17.948;2023-12-07T21:48:03;140.47;;;41.07;;
18592;SDS011;9426;54.118;17.948;2023-12-07T21:53:27;129.63;;;38.67;;
18592;SDS011;9426;54.118;17.948;2023-12-07T21:58:52;141.97;;;42.13;;
18592;SDS011;9426;54.118;17.948;2023-12-07T22:04:16;149.60;;;42.77;;
18592;SDS011;9426;54.118;17.948;2023-12-07T22:09:39;140.60;;;42.07;;
18592;SDS011;9426;54.118;17.948;2023-12-07T22:15:05;156.83;;;44.43;;
18592;SDS011;9426;54.118;17.948;2023-12-07T22:20:30;148.70;;;42.83;;
18592;SDS011;9426;54.118;17.948;2023-12-07T22:25:53;144.73;;;43.03;;
18592;SDS011;9426;54.118;17.948;2023-12-07T22:31:18;142.57;;;42.83;;
18592;SDS011;9426;54.118;17.948;2023-12-07T22:36:43;152.03;;;43.63;;
18592;SDS011;9426;54.118;17.948;2023-12-07T22:42:06;134.80;;;44.07;;
18592;SDS011;9426;54.118;17.948;2023-12-07T22:47:31;143.30;;;43.87;;
18592;SDS011;9426;54.118;17.948;2023-12-07T22:52:55;143.70;;;41.20;;
18592;SDS011;9426;54.118;17.948;2023-12-07T22:58:19;134.67;;;42.83;;
18592;SDS011;9426;54.118;17.948;2023-12-07T23:03:44;133.23;;;42.10;;
18592;SDS011;9426;54.118;17.948;2023-12-07T23:09:07;141.17;;;43.17;;
18592;SDS011;9426;54.118;17.948;2023-12-07T23:14:31;141.47;;;41.93;;
18592;SDS011;9426;54.118;17.948;2023-12-07T23:19:56;137.13;;;42.43;;
18592;SDS011;9426;54.118;17.948;2023-12-07T23:25:20;128.27;;;41.30;;
18592;SDS011;9426;54.118;17.948;2023-12-07T23:30:44;127.60;;;44.20;;
18592;SDS011;9426;54.118;17.948;2023-12-07T23:36:09;128.93;;;41.27;;
18592;SDS011;9426;54.118;17.948;2023-12-07T23:41:33;131.73;;;42.07;;
18592;SDS011;9426;54.118;17.948;2023-12-07T23:46:56;123.90;;;40.40;;
18592;SDS011;9426;54.118;17.948;2023-12-07T23:52:21;131.50;;;43.40;;
18592;SDS011;9426;54.118;17.948;2023-12-07T23:57:45;130.40;;;41.63;;
